This is the latest recevied weather packets stored in our database for station/object KD0JCP-10. If no packets are shown the sender has not sent any weather packets the latest 10 day(s).
| Time | Temp. | Humidity | Pressure | Rain* | Wind** | Luminosity | Snow |
|---|---|---|---|---|---|---|---|
| 1777970774 | 8.33° C | 80% | 1009.8 hPa | 0 mm | - | - | - |
| 1777970474 | 8.33° C | 81% | 1009.8 hPa | 0 mm | - | - | - |
| 1777970174 | 8.33° C | 82% | 1009.8 hPa | 0 mm | - | - | - |
| 1777969874 | 8.33° C | 84% | 1009.8 hPa | 0 mm | - | - | - |
| 1777969574 | 8.33° C | 84% | 1009.8 hPa | 0 mm | - | - | - |
| 1777969274 | 8.33° C | 83% | 1009.8 hPa | 0 mm | - | - | - |
| 1777968974 | 8.33° C | 82% | 1009.9 hPa | 0 mm | - | - | - |
| 1777968674 | 8.33° C | 82% | 1009.9 hPa | 0 mm | - | - | - |
| 1777968374 | 8.89° C | 81% | 1009.9 hPa | 0.25 mm | - | - | - |
| 1777968074 | 8.89° C | 83% | 1009.9 hPa | 0.25 mm | - | - | - |
| 1777967774 | 8.89° C | 84% | 1009.8 hPa | 0.25 mm | - | - | - |
| 1777967474 | 8.89° C | 83% | 1009.9 hPa | 0.51 mm | - | - | - |
| 1777967174 | 8.89° C | 83% | 1010 hPa | 0.51 mm | - | - | - |
| 1777966874 | 8.89° C | 81% | 1010.1 hPa | 0.51 mm | - | - | - |
| 1777966574 | 9.44° C | 80% | 1010 hPa | 0.51 mm | - | - | - |
| 1777966274 | 8.89° C | 79% | 1010 hPa | 0.51 mm | - | - | - |
| 1777965974 | 8.89° C | 79% | 1009.9 hPa | 0.51 mm | - | - | - |
| 1777965674 | 9.44° C | 80% | 1009.8 hPa | 0.51 mm | - | - | - |
| 1777965374 | 9.44° C | 77% | 1009.9 hPa | 0.51 mm | - | - | - |
| 1777965074 | 9.44° C | 76% | 1009.8 hPa | 0.51 mm | - | - | - |
| 1777964774 | 9.44° C | 75% | 1009.7 hPa | 0.25 mm | - | - | - |
| 1777964474 | 10° C | 75% | 1009.8 hPa | 0.25 mm | - | - | - |
| 1777964174 | 10° C | 75% | 1009.8 hPa | 0.25 mm | - | - | - |
| 1777963874 | 10° C | 70% | 1010.1 hPa | 0 mm | - | - | - |
| 1777963574 | 10.56° C | 68% | 1010.1 hPa | 0 mm | - | - | - |
* Rain latest hour (hover to see other rain measurements)
** Current wind speed in m/s (hover to see current wind gust speed)